createdAt,value
2023-05-20T00:04:42.966Z,67.47
2023-05-20T00:10:06.011Z,68.84
2023-05-20T00:15:12.537Z,69.17
2023-05-20T00:20:23.858Z,70.25
2023-05-20T00:25:30.929Z,69.35
2023-05-20T00:30:40.813Z,69.41
2023-05-20T00:35:49.973Z,71.40
2023-05-20T00:40:52.016Z,72.02
2023-05-20T00:45:55.163Z,73.16
2023-05-20T00:50:57.261Z,72.67
2023-05-20T00:55:59.813Z,73.22
2023-05-20T01:01:02.114Z,72.66
2023-05-20T01:06:04.198Z,72.61
2023-05-20T01:11:18.955Z,72.30
2023-05-20T01:16:25.872Z,71.50
2023-05-20T01:21:30.636Z,71.18
2023-05-20T01:26:32.290Z,72.10
2023-05-20T01:31:40.888Z,72.04
2023-05-20T01:36:46.074Z,71.94
2023-05-20T01:41:49.137Z,74.22
2023-05-20T01:46:50.868Z,74.08
2023-05-20T01:51:54.974Z,73.66
2023-05-20T01:56:57.175Z,74.06
2023-05-20T02:01:58.854Z,74.17
2023-05-20T02:07:00.484Z,72.56
2023-05-20T02:12:02.437Z,72.39
2023-05-20T02:17:04.255Z,73.73
2023-05-20T02:22:07.228Z,74.34
2023-05-20T02:27:09.012Z,74.66
2023-05-20T02:32:10.840Z,74.84
2023-05-20T02:37:13.421Z,74.83
2023-05-20T02:42:17.731Z,75.83
2023-05-20T02:47:23.203Z,76.45
2023-05-20T02:52:37.522Z,78.26
2023-05-20T02:57:41.053Z,78.46
2023-05-20T03:08:10.748Z,77.91
2023-05-20T03:13:13.203Z,79.98
2023-05-20T03:18:14.869Z,80.50
2023-05-20T03:23:20.192Z,80.84
2023-05-20T03:28:37.141Z,81.02
2023-05-20T03:33:39.482Z,81.82
2023-05-20T03:49:16.110Z,81.46
2023-05-20T03:54:22.008Z,82.93
2023-05-20T03:59:31.366Z,85.01
2023-05-20T04:04:39.751Z,84.98
2023-05-20T04:15:14.296Z,87.19
2023-05-20T04:20:33.028Z,89.64
2023-05-20T04:25:38.603Z,89.45
2023-05-20T04:41:34.242Z,89.74
2023-05-20T04:46:36.116Z,87.78
2023-05-20T04:51:38.092Z,85.65
2023-05-20T04:56:55.785Z,84.87
2023-05-20T05:01:57.540Z,85.65
2023-05-20T05:06:59.276Z,84.03
2023-05-20T05:12:01.159Z,83.75
2023-05-20T05:17:03.194Z,83.28
2023-05-20T05:22:09.342Z,83.31
2023-05-20T05:27:15.781Z,82.67
2023-05-20T05:32:18.807Z,80.49
2023-05-20T05:37:20.925Z,80.26
2023-05-20T05:42:23.820Z,78.16
2023-05-20T05:47:27.272Z,78.45
2023-05-20T05:52:28.823Z,76.76
2023-05-20T05:57:34.096Z,75.67
2023-05-20T06:02:54.231Z,76.65
2023-05-20T06:07:56.289Z,74.15
2023-05-20T06:13:00.584Z,73.29
2023-05-20T06:18:05.344Z,72.41
2023-05-20T06:23:18.197Z,72.05
2023-05-20T06:28:20.948Z,71.34
2023-05-20T06:33:27.393Z,70.42
2023-05-20T06:38:29.648Z,69.87
2023-05-20T06:43:31.526Z,68.30
2023-05-20T06:48:33.075Z,70.58
2023-05-20T06:53:34.849Z,70.49
2023-05-20T06:58:36.487Z,69.06
2023-05-20T07:15:08.283Z,64.56
2023-05-20T07:25:27.009Z,62.75
2023-05-20T07:30:28.874Z,61.61
2023-05-20T07:35:30.395Z,60.87
2023-05-20T07:40:31.965Z,60.64
2023-05-20T07:45:36.281Z,57.68
2023-05-20T07:50:38.186Z,57.35
2023-05-20T07:55:50.746Z,56.85
2023-05-20T08:00:52.665Z,56.01
2023-05-20T08:06:11.466Z,54.74
2023-05-20T08:11:13.566Z,55.54
2023-05-20T08:16:23.577Z,53.69
2023-05-20T08:21:26.266Z,52.70
2023-05-20T08:26:28.717Z,53.02
2023-05-20T08:43:13.232Z,49.21
2023-05-20T08:48:34.316Z,48.89
2023-05-20T08:59:49.389Z,46.08
2023-05-20T09:05:09.792Z,45.33
2023-05-20T09:10:14.216Z,46.78
2023-05-20T09:15:16.197Z,47.52
2023-05-20T09:20:18.454Z,46.82
2023-05-20T09:25:23.884Z,44.88
2023-05-20T09:30:28.534Z,43.43
2023-05-20T09:35:34.219Z,44.33
2023-05-20T09:40:37.133Z,44.37
2023-05-20T09:46:00.189Z,40.92
2023-05-20T09:51:05.558Z,39.84
2023-05-20T09:56:12.897Z,40.68
2023-05-20T10:01:35.364Z,40.95
2023-05-20T10:07:20.948Z,40.22
2023-05-20T10:13:00.696Z,42.16
2023-05-20T10:18:38.437Z,41.77
2023-05-20T10:23:40.505Z,42.69
2023-05-20T10:28:57.390Z,43.25
2023-05-20T10:34:01.219Z,44.39
2023-05-20T10:44:49.510Z,45.01
2023-05-20T10:50:54.771Z,45.93
2023-05-20T11:01:34.820Z,46.26
2023-05-20T11:18:36.902Z,44.58
2023-05-20T11:24:11.601Z,43.67
2023-05-20T11:30:10.504Z,45.87
2023-05-20T11:35:26.026Z,43.81
2023-05-20T11:40:38.953Z,42.52
2023-05-20T11:46:00.212Z,41.52
2023-05-20T11:51:02.355Z,41.99
2023-05-20T11:56:04.491Z,42.78
2023-05-20T12:01:23.024Z,43.46
2023-05-20T12:06:25.604Z,45.33
2023-05-20T12:11:36.901Z,43.24
2023-05-20T12:16:52.072Z,42.84
2023-05-20T12:21:53.907Z,44.25
2023-05-20T12:26:55.436Z,44.39
2023-05-20T12:32:03.400Z,43.92
2023-05-20T12:37:05.588Z,44.17
2023-05-20T12:42:07.421Z,44.15
2023-05-20T12:47:10.302Z,43.65
2023-05-20T12:52:22.484Z,43.41
2023-05-20T12:57:25.331Z,44.85
2023-05-20T13:02:27.619Z,44.23
2023-05-20T13:07:32.647Z,44.98
2023-05-20T13:12:42.057Z,46.65
2023-05-20T13:28:20.912Z,46.38
2023-05-20T13:33:22.917Z,45.91
2023-05-20T13:38:26.819Z,45.78
2023-05-20T13:43:33.851Z,45.97
2023-05-20T13:48:36.034Z,46.22
2023-05-20T13:53:49.074Z,45.95
2023-05-20T13:58:52.508Z,45.72
2023-05-20T14:03:54.615Z,45.32
2023-05-20T14:09:12.936Z,45.79
2023-05-20T14:14:36.345Z,46.22
2023-05-20T14:19:41.994Z,46.62
2023-05-20T14:24:49.647Z,46.54
2023-05-20T14:36:23.618Z,47.89
2023-05-20T14:41:33.195Z,48.04
2023-05-20T14:46:37.754Z,48.60
2023-05-20T14:57:12.627Z,48.76
2023-05-20T15:02:15.771Z,49.48
2023-05-20T15:07:22.993Z,49.77
2023-05-20T15:12:32.520Z,50.08
2023-05-20T15:18:15.060Z,51.35
2023-05-20T15:23:10.223Z,52.01
2023-05-20T15:28:25.487Z,51.58
2023-05-20T15:33:32.652Z,51.08
2023-05-20T15:38:43.385Z,51.21
2023-05-20T15:44:00.103Z,52.11
2023-05-20T15:49:05.405Z,52.37
2023-05-20T15:54:19.389Z,53.09
2023-05-20T15:59:23.002Z,52.34
2023-05-20T16:04:28.118Z,53.45
2023-05-20T16:09:30.006Z,54.31
2023-05-20T16:14:32.168Z,53.92
2023-05-20T16:19:33.899Z,54.42
2023-05-20T16:24:35.976Z,54.93
2023-05-20T16:29:39.108Z,54.61
2023-05-20T16:34:41.369Z,55.02
2023-05-20T16:39:43.423Z,54.96
2023-05-20T16:44:48.073Z,55.60
2023-05-20T16:49:49.914Z,54.83
2023-05-20T16:54:51.346Z,55.18
2023-05-20T16:59:58.950Z,55.58
2023-05-20T17:05:02.205Z,55.15
2023-05-20T17:10:04.149Z,56.75
2023-05-20T17:15:08.130Z,57.82
2023-05-20T17:20:16.371Z,57.90
2023-05-20T17:25:20.967Z,58.85
2023-05-20T17:30:22.872Z,58.92
2023-05-20T17:35:24.536Z,59.38
2023-05-20T17:40:28.601Z,59.55
2023-05-20T17:45:30.637Z,61.32
2023-05-20T17:50:32.510Z,59.76
2023-05-20T17:55:42.692Z,60.58
2023-05-20T18:00:44.885Z,61.70
2023-05-20T18:05:47.508Z,61.29
2023-05-20T18:10:49.504Z,62.32
2023-05-20T18:15:51.359Z,62.68
2023-05-20T18:20:53.355Z,64.02
2023-05-20T18:25:55.251Z,65.88
2023-05-20T18:30:57.132Z,65.67
2023-05-20T18:36:07.670Z,66.06
2023-05-20T18:41:09.534Z,66.60
2023-05-20T18:46:11.445Z,67.16
2023-05-20T18:51:13.604Z,67.45
2023-05-20T18:56:15.624Z,68.71
2023-05-20T19:01:20.747Z,69.32
2023-05-20T19:06:22.515Z,69.41
2023-05-20T19:11:24.429Z,70.32
2023-05-20T19:16:26.608Z,71.81
2023-05-20T19:21:31.575Z,73.62
2023-05-20T19:26:33.524Z,73.32
2023-05-20T19:31:35.628Z,73.60
2023-05-20T19:36:41.714Z,74.02
2023-05-20T19:41:43.830Z,75.37
2023-05-20T19:46:45.729Z,75.42
2023-05-20T19:51:50.296Z,76.17
2023-05-20T19:56:51.752Z,77.10
2023-05-20T20:01:53.944Z,77.28
2023-05-20T20:06:56.017Z,78.71
2023-05-20T20:11:57.927Z,78.67
2023-05-20T20:17:00.163Z,79.46
2023-05-20T20:22:02.516Z,80.17
2023-05-20T20:27:05.320Z,81.70
2023-05-20T20:32:11.786Z,81.89
2023-05-20T20:37:14.598Z,82.49
2023-05-20T20:42:16.297Z,82.75
2023-05-20T20:47:25.578Z,83.96
2023-05-20T20:52:27.461Z,83.91
2023-05-20T20:57:31.958Z,84.27
2023-05-20T21:02:36.693Z,84.98
2023-05-20T21:07:38.851Z,85.09
2023-05-20T21:12:46.062Z,86.16
2023-05-20T21:17:48.163Z,87.34
2023-05-20T21:22:54.246Z,87.72
2023-05-20T21:27:57.114Z,87.12
2023-05-20T21:33:01.877Z,88.35
2023-05-20T21:38:04.770Z,89.56
2023-05-20T21:43:06.550Z,88.90
2023-05-20T21:48:17.130Z,89.62
2023-05-20T21:53:24.404Z,90.02
2023-05-20T21:58:26.151Z,90.26
2023-05-20T22:03:28.003Z,90.86
2023-05-20T22:08:32.810Z,91.42
2023-05-20T22:13:38.705Z,91.44
2023-05-20T22:18:41.677Z,91.32
2023-05-20T22:23:44.106Z,91.78
2023-05-20T22:28:46.035Z,91.85
2023-05-20T22:33:48.133Z,91.82
2023-05-20T22:38:50.333Z,93.50
2023-05-20T22:43:52.207Z,93.62
2023-05-20T22:48:53.985Z,93.33
2023-05-20T22:53:59.505Z,93.53
2023-05-20T22:59:01.651Z,94.74
2023-05-20T23:04:04.010Z,93.93
2023-05-20T23:09:05.793Z,93.82
2023-05-20T23:14:07.660Z,93.89
2023-05-20T23:19:09.321Z,94.43
2023-05-20T23:24:21.489Z,95.60
2023-05-20T23:29:23.421Z,95.63
2023-05-20T23:34:27.836Z,96.68
2023-05-20T23:39:37.617Z,96.21
2023-05-20T23:44:39.314Z,97.48
2023-05-20T23:49:44.260Z,96.84
2023-05-20T23:54:46.392Z,97.16
2023-05-20T23:59:50.685Z,97.46
